Главная страница
METAR-TAF:

METAR-TAF

Аэропорты :

Илам, Иран

широта: 33-35-09N, долгота: 046-24-20E, высота над уровнем моря: 1334 м

Текущие метеонаблюдения

Эта сводка был подготовлена 2 часа и 58 минут назад, в 00:00 UTC
Ветер 4 Узел от юго-восточный
Температура 7°C
Влажность 76%
Давление 1023 hPa
Видимость 10 км и более
Нет облачности ниже 1500 м, и нет кучево-дождевой облачности

METAR: OICI 270000Z 14004KT CAVOK 07/03 Q1023 A3021

Время: 06:28 (02:58 UTC)

Прогноз

Эта сводка был подготовлена 3 часа и 58 минут назад, в 23:00 UTC
Прогноз действительный с 27-го 00 UTC до 28-го 06 UTC
Ветер 8 Узел от восточно-юго-восточный
Видимость 10 км и более
Отдельные облака на высоте 10000 фута

TAF: OICI 262300Z 2700/2806 12008KT 9999 SCT100

Метеонаблюдения и прогнозы для более 4000 аэропортов (сводки METAR и TAF).

Имеющиеся станции представлены на карте желтыми и красными точками.

Чтобы увидеть название станции, наведите на нее мышь.

Затем щелкните, чтобы увидеть метеонаблюдения и метеопрогнозы.

Управление картой: чтобы увеличить масштаб, щелкните зеленые кнопки с черным крестиком; чтобы уменьшить масштаб, щелкните зеленую кнопку с тире; для просмотра соседних карт щелкайте зеленые стрелки.


METAR-TAF: